Time;durP1;ratioP1;P1;durP2;ratioP2;P2;SDS_P1;SDS_P2;PMS_P1;PMS_P2;Temp;Humidity;BMP_temperature;BMP_pressure;BME280_temperature;BME280_humidity;BME280_pressure;Samples;Min_cycle;Max_cycle;Signal;HPM_P1;HPM_P2
2021/10/22 00:01:26;;;;;;;8.68;7.65;;;;;;;18.59;43.17;98669.89;1781477;80;21593;-60
2021/10/22 00:03:52;;;;;;;10.28;8.03;;;;;;;18.60;43.18;98676.91;1742347;81;21048;-59
2021/10/22 00:06:19;;;;;;;8.98;7.55;;;;;;;18.60;43.20;98669.35;1743672;81;21065;-60
2021/10/22 00:08:46;;;;;;;9.93;8.20;;;;;;;18.59;43.21;98675.27;1762412;81;21155;-61
2021/10/22 00:11:12;;;;;;;8.48;7.37;;;;;;;18.60;43.22;98674.73;1745751;81;21063;-60
2021/10/22 00:13:38;;;;;;;8.85;7.40;;;;;;;18.60;43.25;98662.13;1748422;81;23250;-61
2021/10/22 00:16:06;;;;;;;8.98;8.08;;;;;;;18.59;43.24;98664.52;1720023;81;21000;-61
2021/10/22 00:18:34;;;;;;;7.70;6.90;;;;;;;18.60;43.25;98666.16;1757852;80;21129;-60
2021/10/22 00:21:00;;;;;;;8.03;7.22;;;;;;;18.60;43.27;98665.31;1755666;81;21140;-60
2021/10/22 00:23:27;;;;;;;9.43;7.85;;;;;;;18.59;43.27;98658.33;1762385;81;21026;-61
2021/10/22 00:25:53;;;;;;;8.73;7.37;;;;;;;18.59;43.29;98659.67;1759059;81;23310;-60
2021/10/22 00:28:20;;;;;;;8.55;7.65;;;;;;;18.59;43.31;98664.52;1761639;81;21453;-60
2021/10/22 00:30:47;;;;;;;7.80;7.00;;;;;;;18.60;43.32;98667.50;1731613;81;21496;-61
2021/10/22 00:33:13;;;;;;;8.68;7.22;;;;;;;18.59;43.32;98667.20;1761764;81;21053;-61
2021/10/22 00:35:41;;;;;;;8.28;7.45;;;;;;;18.60;43.34;98662.63;1761807;81;21084;-61
2021/10/22 00:38:07;;;;;;;8.35;7.12;;;;;;;18.59;43.34;98651.60;1762112;81;21052;-61
2021/10/22 00:40:34;;;;;;;7.90;7.10;;;;;;;18.59;43.37;98656.44;1786963;78;21068;-61
2021/10/22 00:43:01;;;;;;;8.78;7.28;;;;;;;18.59;43.38;98656.44;1805807;79;20986;-61
2021/10/22 00:45:28;;;;;;;8.48;7.05;;;;;;;18.59;43.39;98659.13;1795629;79;21116;-61
2021/10/22 00:47:54;;;;;;;9.00;6.85;;;;;;;18.60;43.38;98666.66;1810819;79;21032;-60
2021/10/22 00:50:21;;;;;;;8.85;7.37;;;;;;;18.60;43.40;98653.22;1780886;79;21486;-61
2021/10/22 00:52:48;;;;;;;9.10;7.53;;;;;;;18.60;43.40;98669.35;1810488;78;21082;-60
2021/10/22 00:55:15;;;;;;;7.75;6.78;;;;;;;18.60;43.43;98651.87;1812853;78;21084;-61
2021/10/22 00:57:42;;;;;;;8.05;7.05;;;;;;;18.59;43.42;98648.38;1813663;79;21020;-61
2021/10/22 01:00:10;;;;;;;7.12;6.25;;;;;;;18.59;43.42;98656.44;1808708;79;21040;-60
2021/10/22 01:02:38;;;;;;;7.75;6.78;;;;;;;18.61;43.44;98658.35;1805427;79;21125;-61
2021/10/22 01:05:09;;;;;;;7.80;7.10;;;;;;;18.60;43.44;98667.50;1815028;79;21450;-61
2021/10/22 01:07:41;;;;;;;7.12;6.30;;;;;;;18.60;43.43;98671.53;1810646;79;21028;-60
2021/10/22 01:10:09;;;;;;;7.10;6.25;;;;;;;18.60;43.46;98665.31;1812386;79;22184;-60
2021/10/22 01:12:37;;;;;;;7.17;6.42;;;;;;;18.59;43.47;98671.77;1813704;79;21307;-60
2021/10/22 01:15:05;;;;;;;7.35;6.65;;;;;;;18.59;43.48;98681.99;1809188;78;21196;-62
2021/10/22 01:17:43;;;;;;;7.35;6.65;;;;;;;18.59;43.51;98690.06;1784880;79;21627;-61
2021/10/22 01:20:14;;;;;;;6.87;6.17;;;;;;;18.60;43.48;98685.48;1809825;79;21038;-61
2021/10/22 01:22:40;;;;;;;7.40;6.70;;;;;;;18.59;43.51;98690.06;1808601;79;21019;-61
2021/10/22 01:25:10;;;;;;;7.55;6.12;;;;;;;18.60;43.53;98690.87;1785764;79;21009;-60
2021/10/22 01:27:36;;;;;;;6.60;5.97;;;;;;;18.60;43.52;98690.36;1749734;80;21270;-60
2021/10/22 01:30:07;;;;;;;7.30;6.58;;;;;;;18.61;43.56;98703.27;1803674;79;21521;-60
2021/10/22 01:32:33;;;;;;;7.50;6.67;;;;;;;18.60;43.53;98698.94;1800480;78;21018;-60
2021/10/22 01:35:00;;;;;;;7.00;6.28;;;;;;;18.61;43.54;98703.27;1801062;79;21625;-61
2021/10/22 01:37:27;;;;;;;7.60;5.75;;;;;;;18.60;43.53;98706.50;1766578;79;21011;-61
2021/10/22 01:39:54;;;;;;;7.83;6.40;;;;;;;18.60;43.56;98707.84;1814633;79;21078;-62
2021/10/22 01:42:20;;;;;;;9.70;6.70;;;;;;;18.59;43.54;98703.51;1787391;79;21011;-61
2021/10/22 01:44:47;;;;;;;6.45;5.85;;;;;;;18.60;43.54;98710.53;1805656;79;20981;-62
2021/10/22 01:47:14;;;;;;;7.30;6.28;;;;;;;18.60;43.56;98704.31;1812431;79;21559;-60
2021/10/22 01:49:40;;;;;;;7.70;6.67;;;;;;;18.61;43.58;98716.72;1786634;79;21063;-63
2021/10/22 01:52:07;;;;;;;9.45;6.00;;;;;;;18.61;43.59;98724.25;1779387;79;21146;-60
2021/10/22 01:54:33;;;;;;;7.33;6.08;;;;;;;18.60;43.59;98726.67;1805435;78;21037;-60
2021/10/22 01:57:00;;;;;;;7.20;6.50;;;;;;;18.61;43.59;98730.17;1790938;79;21509;-61
2021/10/22 01:59:26;;;;;;;7.40;6.70;;;;;;;18.61;43.60;98732.32;1804830;79;21085;-61
2021/10/22 02:01:53;;;;;;;6.53;5.75;;;;;;;18.61;43.59;98735.55;1780545;80;20990;-61
2021/10/22 02:04:19;;;;;;;6.78;5.80;;;;;;;18.61;43.60;98735.01;1771989;80;21122;-61
2021/10/22 02:06:48;;;;;;;6.55;5.95;;;;;;;18.62;43.62;98741.20;1778672;79;21258;-60
2021/10/22 02:09:15;;;;;;;6.20;5.62;;;;;;;18.61;43.60;98742.27;1744244;81;21034;-60
2021/10/22 02:11:42;;;;;;;5.53;5.03;;;;;;;18.61;43.63;98740.92;1782729;79;21119;-59
2021/10/22 02:14:08;;;;;;;6.83;5.78;;;;;;;18.61;43.64;98747.11;1807531;79;21528;-60
2021/10/22 02:16:34;;;;;;;6.78;6.08;;;;;;;18.61;43.62;98760.56;1781949;79;21064;-61
2021/10/22 02:19:01;;;;;;;6.35;5.72;;;;;;;18.61;43.65;98763.25;1808505;78;20995;-60
2021/10/22 02:21:27;;;;;;;6.80;5.80;;;;;;;18.61;43.64;98768.63;1815277;78;21048;-60
2021/10/22 02:23:54;;;;;;;5.55;5.03;;;;;;;18.62;43.63;98766.75;1803391;79;21025;-61
2021/10/22 02:26:22;;;;;;;5.90;5.20;;;;;;;18.61;43.63;98771.86;1803760;79;21023;-60
2021/10/22 02:28:48;;;;;;;6.83;6.15;;;;;;;18.61;43.66;98769.98;1760154;79;21049;-60
2021/10/22 02:31:16;;;;;;;6.75;6.05;;;;;;;18.61;43.64;98780.73;1805776;79;20993;-60
2021/10/22 02:33:42;;;;;;;7.03;6.42;;;;;;;18.61;43.65;98782.08;1815722;78;21036;-60
2021/10/22 02:36:09;;;;;;;5.92;5.33;;;;;;;18.61;43.65;98778.05;1812303;79;21061;-59
2021/10/22 02:38:35;;;;;;;6.35;5.75;;;;;;;18.60;43.66;98781.81;1773858;80;21490;-61
2021/10/22 02:41:02;;;;;;;7.05;6.12;;;;;;;18.61;43.66;98786.12;1808248;78;21761;-61
2021/10/22 02:43:28;;;;;;;6.75;6.15;;;;;;;18.60;43.67;98795.27;1722050;81;21559;-60
2021/10/22 02:45:56;;;;;;;5.62;5.12;;;;;;;18.60;43.69;98793.08;1754063;80;21084;-61
2021/10/22 02:48:23;;;;;;;6.00;5.45;;;;;;;18.60;43.67;98798.45;1810135;78;21005;-60
2021/10/22 02:50:49;;;;;;;6.10;5.37;;;;;;;18.59;43.66;98797.65;1776235;79;21001;-60
2021/10/22 02:53:16;;;;;;;5.83;5.33;;;;;;;18.58;43.70;98802.76;1814506;78;21170;-61
2021/10/22 02:55:43;;;;;;;5.65;5.15;;;;;;;18.59;43.68;98800.88;1802759;79;20981;-61
2021/10/22 02:58:09;;;;;;;6.03;5.35;;;;;;;18.59;43.68;98809.75;1771900;79;21076;-60
2021/10/22 03:00:36;;;;;;;5.47;4.97;;;;;;;18.59;43.68;98800.88;1782790;79;21066;-60
2021/10/22 03:03:04;;;;;;;5.58;5.08;;;;;;;18.58;43.70;98817.55;1798311;78;21061;-60
2021/10/22 03:05:31;;;;;;;6.08;5.20;;;;;;;18.57;43.69;98814.56;1798465;79;21040;-60
2021/10/22 03:07:58;;;;;;;5.40;4.90;;;;;;;18.58;43.69;98818.06;1738771;79;21123;-60
2021/10/22 03:10:24;;;;;;;5.58;5.05;;;;;;;18.57;43.71;98829.36;1790469;79;21052;-61
2021/10/22 03:12:51;;;;;;;5.00;4.53;;;;;;;18.58;43.71;98828.81;1759127;79;21080;-60
2021/10/22 03:15:17;;;;;;;6.58;4.85;;;;;;;18.57;43.71;98827.20;1811102;78;21028;-60
2021/10/22 03:17:43;;;;;;;5.83;4.92;;;;;;;18.57;43.71;98826.66;1786168;79;21018;-61
2021/10/22 03:20:10;;;;;;;6.78;5.33;;;;;;;18.57;43.71;98829.36;1805322;78;21037;-61
2021/10/22 03:22:38;;;;;;;5.78;5.20;;;;;;;18.57;43.72;98836.62;1804543;79;21029;-61
2021/10/22 03:25:06;;;;;;;7.25;5.12;;;;;;;18.57;43.69;98836.08;1801837;79;21710;-62
2021/10/22 03:27:34;;;;;;;5.17;4.67;;;;;;;18.56;43.71;98840.35;1786969;79;21053;-61
2021/10/22 03:30:00;;;;;;;5.47;4.97;;;;;;;18.57;43.69;98843.34;1769594;80;21060;-61
2021/10/22 03:32:32;;;;;;;5.85;5.33;;;;;;;18.56;43.71;98841.19;1784339;79;21038;-62
2021/10/22 03:34:56;;;;;;;5.10;4.60;;;;;;;18.57;43.68;98842.00;1798203;79;21587;-61
2021/10/22 03:37:23;;;;;;;5.37;4.85;;;;;;;18.55;43.72;98836.85;1783027;79;21047;-60
2021/10/22 03:39:50;;;;;;;5.65;4.62;;;;;;;18.55;43.72;98837.39;1794843;79;21514;-60
2021/10/22 03:42:17;;;;;;;4.87;4.37;;;;;;;18.55;43.72;98844.92;1809219;79;21446;-60
2021/10/22 03:44:43;;;;;;;5.35;4.80;;;;;;;18.54;43.74;98840.58;1774362;79;21052;-60
2021/10/22 03:47:10;;;;;;;5.78;5.17;;;;;;;18.54;43.71;98845.96;1790202;79;21028;-62
2021/10/22 03:49:36;;;;;;;5.00;4.50;;;;;;;18.55;43.73;98851.64;1794992;79;21085;-61
2021/10/22 03:52:04;;;;;;;5.12;4.53;;;;;;;18.54;43.74;98855.38;1779069;79;20973;-61
2021/10/22 03:54:30;;;;;;;4.72;4.30;;;;;;;18.53;43.75;98861.83;1795817;79;21194;-61
2021/10/22 03:56:57;;;;;;;5.45;4.72;;;;;;;18.52;43.74;98865.56;1772767;80;21037;-60
2021/10/22 03:59:23;;;;;;;4.97;4.22;;;;;;;18.53;43.75;98869.90;1782120;79;21042;-60
2021/10/22 04:01:50;;;;;;;5.12;4.62;;;;;;;18.54;43.74;98870.70;1775948;80;21675;-61
2021/10/22 04:04:17;;;;;;;5.55;4.80;;;;;;;18.53;43.77;98875.28;1799195;79;21051;-62
2021/10/22 04:06:43;;;;;;;6.80;4.37;;;;;;;18.53;43.75;98873.94;1804508;79;21120;-62
2021/10/22 04:09:10;;;;;;;4.90;4.40;;;;;;;18.54;43.75;98886.84;1785017;79;21038;-61
2021/10/22 04:11:37;;;;;;;5.20;4.70;;;;;;;18.53;43.77;98890.61;1790985;79;21014;-61
2021/10/22 04:14:03;;;;;;;4.92;4.08;;;;;;;18.51;43.78;98886.80;1805832;79;21021;-63
2021/10/22 04:16:30;;;;;;;4.87;4.37;;;;;;;18.52;43.76;98889.77;1796147;79;21056;-62
2021/10/22 04:18:57;;;;;;;5.10;4.58;;;;;;;18.52;43.77;98897.03;1797171;79;21080;-61
2021/10/22 04:21:23;;;;;;;4.83;4.10;;;;;;;18.51;43.81;98896.75;1809395;78;21069;-62
2021/10/22 04:23:50;;;;;;;5.37;4.87;;;;;;;18.51;43.77;98896.75;1803899;79;21261;-61
2021/10/22 04:26:16;;;;;;;5.10;4.55;;;;;;;18.51;43.78;98904.83;1741583;81;21857;-61
2021/10/22 04:28:42;;;;;;;4.95;4.40;;;;;;;18.50;43.81;98910.71;1765017;79;21557;-61
2021/10/22 04:31:08;;;;;;;4.58;4.17;;;;;;;18.50;43.82;98908.02;1733909;80;21129;-61
2021/10/22 04:33:35;;;;;;;5.28;4.78;;;;;;;18.50;43.82;98906.67;1766663;79;21025;-63
2021/10/22 04:36:01;;;;;;;4.83;4.28;;;;;;;18.49;43.83;98914.47;1726790;81;20998;-60
2021/10/22 04:41:13;;;;;;;4.87;4.28;;;;;;;18.49;43.82;98912.31;1755454;80;21088;-61
2021/10/22 04:43:39;;;;;;;5.30;4.78;;;;;;;18.49;43.84;98912.31;1729899;80;21130;-61
2021/10/22 04:46:06;;;;;;;4.55;4.15;;;;;;;18.46;43.86;98914.94;1690531;83;21063;-61
2021/10/22 04:48:34;;;;;;;5.00;4.22;;;;;;;18.46;43.87;98925.70;1748653;81;21100;-61
2021/10/22 04:51:00;;;;;;;5.37;4.80;;;;;;;18.46;43.86;98936.45;1727405;81;21096;-62
2021/10/22 04:53:26;;;;;;;5.00;4.50;;;;;;;18.45;43.88;98944.25;1745814;81;21049;-62
2021/10/22 04:55:54;;;;;;;5.15;4.60;;;;;;;18.45;43.90;98941.55;1803889;79;21176;-62
2021/10/22 04:58:21;;;;;;;5.03;4.53;;;;;;;18.44;43.88;98950.67;1765399;79;21532;-62
2021/10/22 05:00:47;;;;;;;5.12;4.67;;;;;;;18.44;43.87;98950.67;1782281;79;21016;-62
2021/10/22 05:03:13;;;;;;;4.65;4.25;;;;;;;18.44;43.88;98954.70;1792434;79;20997;-62
2021/10/22 05:05:40;;;;;;;4.75;4.30;;;;;;;18.45;43.88;98953.66;1807293;79;21094;-63
2021/10/22 05:08:06;;;;;;;4.83;4.30;;;;;;;18.43;43.93;98957.92;1812321;79;21121;-62
2021/10/22 05:10:33;;;;;;;5.00;4.50;;;;;;;18.44;43.88;98961.42;1815251;79;21663;-61
2021/10/22 05:12:59;;;;;;;4.50;4.10;;;;;;;18.44;43.87;98954.16;1780800;79;21020;-61
2021/10/22 05:15:26;;;;;;;6.00;4.28;;;;;;;18.43;43.88;98960.61;1805545;79;21045;-60
2021/10/22 05:17:52;;;;;;;4.65;4.20;;;;;;;18.45;43.93;98960.38;1797738;79;21051;-61
2021/10/22 05:20:19;;;;;;;6.55;4.10;;;;;;;18.45;43.87;98963.07;1784206;78;21232;-62
2021/10/22 05:22:45;;;;;;;4.20;3.80;;;;;;;18.45;43.86;98967.10;1795660;79;21516;-62
2021/10/22 05:25:12;;;;;;;4.60;4.15;;;;;;;18.44;43.87;98968.95;1795361;79;21062;-62
2021/10/22 05:27:39;;;;;;;4.72;4.33;;;;;;;18.44;43.83;98976.21;1800828;79;20989;-61
2021/10/22 05:30:07;;;;;;;4.45;4.05;;;;;;;18.44;43.82;98987.78;1786063;79;21266;-62
2021/10/22 05:32:34;;;;;;;4.78;4.30;;;;;;;18.35;43.84;98974.94;1748902;82;21123;-61
2021/10/22 05:35:00;;;;;;;4.10;3.72;;;;;;;18.43;43.83;98999.61;1736953;81;21122;-61
2021/10/22 05:37:26;;;;;;;4.65;4.10;;;;;;;18.43;43.83;99006.33;1752525;81;21596;-62
2021/10/22 05:39:52;;;;;;;6.15;4.03;;;;;;;18.46;43.78;99003.68;1745265;81;21749;-62
2021/10/22 05:42:19;;;;;;;5.25;4.03;;;;;;;18.46;43.77;99009.87;1757505;81;21505;-62
2021/10/22 05:44:45;;;;;;;5.03;4.53;;;;;;;18.46;43.77;99011.21;1744319;81;21069;-63
2021/10/22 05:47:15;;;;;;;4.30;3.90;;;;;;;18.46;43.73;99014.44;1758892;81;21033;-62
2021/10/22 05:49:43;;;;;;;4.37;3.98;;;;;;;18.47;43.72;99020.94;1742428;81;21061;-62
2021/10/22 05:52:10;;;;;;;4.20;3.80;;;;;;;18.49;43.71;99019.36;1732828;80;21026;-62
2021/10/22 05:54:38;;;;;;;4.40;4.00;;;;;;;18.49;43.70;99025.27;1755277;81;21084;-62
2021/10/22 05:57:04;;;;;;;4.15;3.70;;;;;;;18.50;43.65;99016.13;1744231;81;21850;-62
2021/10/22 05:59:31;;;;;;;4.22;3.60;;;;;;;18.51;43.65;99016.44;1750947;81;21045;-63
2021/10/22 06:01:57;;;;;;;3.75;3.35;;;;;;;18.52;43.59;99018.86;1767182;81;21029;-62
2021/10/22 06:04:24;;;;;;;3.87;3.40;;;;;;;18.53;43.54;99017.82;1804797;78;21553;-61
2021/10/22 06:06:50;;;;;;;4.22;3.27;;;;;;;18.56;43.52;99017.36;1810884;79;21077;-62
2021/10/22 06:09:17;;;;;;;4.03;3.52;;;;;;;18.58;43.50;99019.28;1804489;79;21933;-63
2021/10/22 06:11:43;;;;;;;4.08;3.52;;;;;;;18.60;43.45;99021.20;1798386;79;21000;-62
2021/10/22 06:14:10;;;;;;;4.60;3.58;;;;;;;18.61;43.43;99021.48;1812581;79;21083;-62
2021/10/22 06:16:36;;;;;;;3.60;3.20;;;;;;;18.64;43.43;99020.20;1811595;79;21111;-64
2021/10/22 06:19:03;;;;;;;4.00;3.65;;;;;;;18.65;43.37;99028.55;1806504;79;21067;-64
2021/10/22 06:24:02;;;;;;;4.72;3.77;;;;;;;18.67;43.32;99020.52;1806921;78;21006;-63
2021/10/22 06:26:42;;;;;;;4.17;3.77;;;;;;;18.70;43.33;99033.20;1790373;79;21465;-61
2021/10/22 06:29:05;;;;;;;4.25;3.85;;;;;;;18.71;43.28;99026.78;1818698;78;21080;-61
2021/10/22 06:31:33;;;;;;;4.05;3.45;;;;;;;18.71;43.25;99026.24;1817232;78;21530;-62
2021/10/22 06:34:00;;;;;;;4.37;3.47;;;;;;;18.73;43.20;99026.02;1811187;78;21118;-64
2021/10/22 06:36:27;;;;;;;3.98;3.37;;;;;;;18.74;43.20;99034.39;1791253;78;21031;-62
2021/10/22 06:38:53;;;;;;;3.62;3.10;;;;;;;18.74;43.16;99031.16;1795733;78;20990;-64
2021/10/22 06:41:20;;;;;;;4.83;3.47;;;;;;;18.76;43.16;99041.69;1804644;78;21710;-63
2021/10/22 06:43:46;;;;;;;4.47;3.30;;;;;;;18.78;43.14;99037.69;1815595;78;21056;-62
2021/10/22 06:46:13;;;;;;;4.50;3.20;;;;;;;18.79;43.13;99047.38;1801467;78;21125;-63
2021/10/22 06:48:41;;;;;;;4.62;3.30;;;;;;;18.80;43.05;99040.99;1804496;78;22119;-62
2021/10/22 06:51:09;;;;;;;3.67;3.35;;;;;;;18.82;43.04;99042.11;1800301;78;21560;-63
2021/10/22 06:53:36;;;;;;;3.70;3.37;;;;;;;18.83;43.05;99030.27;1768316;80;21553;-62
2021/10/22 06:56:04;;;;;;;5.20;3.20;;;;;;;18.84;43.07;99029.23;1806846;78;21071;-61
2021/10/22 06:58:31;;;;;;;3.90;3.50;;;;;;;18.85;43.06;99030.84;1808609;78;21124;-62
2021/10/22 07:00:59;;;;;;;4.00;3.05;;;;;;;18.85;43.04;99028.99;1811235;78;21065;-62
2021/10/22 07:03:27;;;;;;;3.83;3.25;;;;;;;18.88;43.04;99020.16;1818891;78;21029;-61
2021/10/22 07:08:25;;;;;;;3.70;3.08;;;;;;;18.91;43.01;99036.64;1789721;78;21098;-64
2021/10/22 07:10:51;;;;;;;3.37;3.08;;;;;;;18.93;43.01;99030.48;1795107;78;21070;-61
2021/10/22 07:13:18;;;;;;;2.80;2.47;;;;;;;18.95;43.03;99051.75;1810438;78;21602;-61
2021/10/22 07:15:45;;;;;;;3.55;3.25;;;;;;;18.95;43.02;99051.25;1801152;78;21061;-63
2021/10/22 07:18:11;;;;;;;3.72;3.10;;;;;;;18.98;43.11;99064.74;1819793;78;21107;-61
2021/10/22 07:20:38;;;;;;;4.03;3.12;;;;;;;18.99;43.07;99048.90;1813252;78;21088;-64
2021/10/22 07:23:09;;;;;;;3.58;3.15;;;;;;;19.00;43.07;99054.55;1812592;78;21762;-61
2021/10/22 07:25:39;;;;;;;4.28;3.10;;;;;;;19.02;43.08;99050.55;1815962;78;21020;-64
2021/10/22 07:28:10;;;;;;;3.20;2.90;;;;;;;19.03;43.10;99044.66;1808423;78;21068;-61
2021/10/22 07:30:36;;;;;;;4.55;3.02;;;;;;;19.04;43.05;99036.86;1812079;78;21028;-62
2021/10/22 07:33:02;;;;;;;3.72;3.02;;;;;;;19.06;43.13;99050.89;1815674;78;21072;-62
2021/10/22 07:35:29;;;;;;;3.37;3.08;;;;;;;19.08;43.19;99043.94;1817751;78;21119;-61
2021/10/22 07:37:56;;;;;;;3.55;2.80;;;;;;;19.10;43.19;99066.05;1807792;78;21095;-61
2021/10/22 07:40:22;;;;;;;3.20;2.90;;;;;;;19.10;43.25;99063.34;1799661;78;21556;-62
2021/10/22 07:42:49;;;;;;;2.95;2.62;;;;;;;19.14;43.30;99061.81;1806621;78;21006;-61
2021/10/22 07:45:15;;;;;;;3.30;3.00;;;;;;;19.15;43.24;99062.11;1819345;78;21083;-62
2021/10/22 07:47:42;;;;;;;4.25;3.50;;;;;;;19.16;43.25;99061.03;1806538;78;21094;-63
2021/10/22 07:50:09;;;;;;;3.47;2.90;;;;;;;19.18;43.25;99060.27;1819382;78;21080;-62
2021/10/22 07:52:40;;;;;;;3.30;2.75;;;;;;;19.20;43.27;99056.80;1800083;78;21543;-61
2021/10/22 07:55:07;;;;;;;3.40;3.10;;;;;;;19.22;43.25;99065.48;1817434;78;21084;-61
2021/10/22 07:57:34;;;;;;;3.30;2.87;;;;;;;19.24;43.19;99062.83;1797469;78;21081;-61
2021/10/22 08:00:00;;;;;;;3.15;2.85;;;;;;;19.25;43.11;99061.75;1810561;78;21149;-62
2021/10/22 08:02:27;;;;;;;4.12;2.72;;;;;;;19.28;43.11;99065.02;1793740;78;21095;-71
2021/10/22 08:04:54;;;;;;;3.40;2.70;;;;;;;19.31;43.06;99077.48;1811408;78;21348;-72
2021/10/22 08:07:27;;;;;;;4.08;3.22;;;;;;;19.33;43.03;99077.23;1806826;78;21567;-72
2021/10/22 08:09:51;;;;;;;3.15;2.70;;;;;;;19.35;42.95;99065.70;1810840;78;21489;-75
2021/10/22 08:12:19;;;;;;;3.55;2.60;;;;;;;19.38;42.91;99064.69;1809632;78;21478;-73
2021/10/22 08:14:46;;;;;;;3.22;2.92;;;;;;;19.41;42.79;99079.03;1818256;78;21064;-73
2021/10/22 08:17:14;;;;;;;3.10;2.85;;;;;;;19.45;42.70;99080.17;1819256;78;21054;-71
2021/10/22 08:19:42;;;;;;;3.35;3.00;;;;;;;19.48;42.61;99080.21;1816576;78;21030;-71
2021/10/22 08:24:51;;;;;;;3.17;2.87;;;;;;;19.56;42.55;99077.65;1754170;79;21072;-72
2021/10/22 08:27:18;;;;;;;3.25;2.95;;;;;;;19.59;42.48;99075.83;1805580;79;21018;-72
2021/10/22 08:29:44;;;;;;;2.95;2.65;;;;;;;19.62;42.45;99092.84;1775512;80;21107;-74
2021/10/22 08:32:10;;;;;;;4.17;2.40;;;;;;;19.67;42.43;99084.84;1777371;80;21076;-62
2021/10/22 08:34:36;;;;;;;3.12;2.70;;;;;;;19.71;42.36;99092.73;1780003;80;21603;-65
2021/10/22 08:37:03;;;;;;;3.98;2.65;;;;;;;19.77;42.32;99079.66;1782023;79;21781;-65
2021/10/22 08:39:31;;;;;;;2.92;2.45;;;;;;;19.81;42.41;99090.23;1744682;81;21079;-62
2021/10/22 08:41:58;;;;;;;2.52;2.27;;;;;;;19.86;42.36;99093.55;1785650;79;21063;-63
2021/10/22 08:44:27;;;;;;;2.58;2.33;;;;;;;19.92;42.38;99091.76;1775924;80;21100;-64
2021/10/22 08:46:54;;;;;;;3.05;2.72;;;;;;;19.98;42.48;99092.13;1775057;80;21087;-62
2021/10/22 08:49:21;;;;;;;4.30;3.17;;;;;;;20.03;42.56;99105.69;1785925;79;21134;-63
2021/10/22 08:51:48;;;;;;;3.33;2.77;;;;;;;20.09;42.54;99099.82;1816453;79;21581;-62
2021/10/22 08:54:15;;;;;;;2.75;2.40;;;;;;;20.15;42.63;99109.11;1805527;78;21060;-63
2021/10/22 08:56:42;;;;;;;4.08;2.47;;;;;;;20.21;42.41;99104.07;1793193;79;21264;-63
2021/10/22 08:59:12;;;;;;;2.80;2.60;;;;;;;20.27;42.72;99098.77;1797687;79;21473;-62
2021/10/22 09:02:10;;;;;;;3.02;2.40;;;;;;;20.34;42.73;99112.88;1812384;79;21887;-62
2021/10/22 09:04:36;;;;;;;2.58;2.37;;;;;;;20.41;42.77;99113.52;1805949;79;21037;-63
2021/10/22 09:07:02;;;;;;;2.95;2.65;;;;;;;20.47;42.71;99111.17;1813177;79;21037;-64
2021/10/22 09:09:29;;;;;;;2.62;2.37;;;;;;;20.53;42.74;99107.52;1807087;78;21497;-62
2021/10/22 09:11:57;;;;;;;3.27;2.80;;;;;;;20.60;42.88;99111.39;1811873;79;21096;-63
2021/10/22 09:14:26;;;;;;;3.25;2.60;;;;;;;20.67;42.94;99105.80;1805919;79;21157;-62
2021/10/22 09:16:53;;;;;;;3.33;2.52;;;;;;;20.73;42.98;99109.69;1796541;79;20983;-64
2021/10/22 09:19:36;;;;;;;2.35;2.12;;;;;;;20.81;43.07;99108.44;1815305;79;21056;-61
2021/10/22 09:22:24;;;;;;;2.50;2.15;;;;;;;20.88;43.09;99104.19;1794448;79;21098;-63
2021/10/22 09:24:53;;;;;;;2.65;2.45;;;;;;;20.95;43.23;99101.58;1809761;79;21034;-63
2021/10/22 09:27:52;;;;;;;3.08;2.15;;;;;;;20.97;43.35;99101.33;1792688;79;22031;-63
2021/10/22 09:30:31;;;;;;;3.27;2.90;;;;;;;21.11;43.35;99106.65;1792950;79;21545;-62
2021/10/22 09:33:14;;;;;;;2.67;2.35;;;;;;;21.20;43.54;99105.65;1799026;78;21020;-63
2021/10/22 09:35:50;;;;;;;2.55;2.35;;;;;;;21.28;43.55;99113.30;1772855;79;21107;-62
2021/10/22 09:38:27;;;;;;;2.87;2.42;;;;;;;21.37;43.61;99127.17;1794385;79;21097;-62
2021/10/22 09:41:06;;;;;;;5.60;2.60;;;;;;;21.45;43.13;99109.73;1806041;79;21110;-64
2021/10/22 09:43:38;;;;;;;3.17;2.87;;;;;;;21.53;42.65;99105.20;1769866;79;21061;-62
2021/10/22 09:46:17;;;;;;;2.47;2.22;;;;;;;21.62;42.35;99113.14;1810403;79;21064;-63
2021/10/22 09:48:48;;;;;;;2.60;2.40;;;;;;;21.70;42.38;99115.37;1816085;78;21482;-63
2021/10/22 09:51:28;;;;;;;3.75;2.27;;;;;;;21.80;42.51;99117.34;1806844;79;21036;-65
2021/10/22 09:53:58;;;;;;;3.08;2.30;;;;;;;21.88;42.27;99113.36;1806923;79;21174;-62
2021/10/22 09:56:26;;;;;;;3.37;2.05;;;;;;;21.96;42.15;99109.66;1816258;78;21043;-65
2021/10/22 09:59:03;;;;;;;2.50;2.12;;;;;;;22.05;42.27;99114.04;1813377;79;21031;-62
2021/10/22 10:01:38;;;;;;;2.90;2.00;;;;;;;22.13;42.16;99114.91;1780291;79;21009;-62
2021/10/22 10:06:58;;;;;;;2.35;2.15;;;;;;;22.30;42.17;99120.75;1776074;79;22430;-61
2021/10/22 10:09:27;;;;;;;2.67;2.05;;;;;;;22.39;41.92;99115.13;1815896;79;21063;-62
2021/10/22 10:11:54;;;;;;;3.30;2.47;;;;;;;22.48;41.97;99123.02;1813137;79;21009;-62
2021/10/22 10:14:25;;;;;;;3.08;2.20;;;;;;;22.57;41.83;99117.94;1812511;79;21044;-62
2021/10/22 10:16:50;;;;;;;2.50;2.30;;;;;;;22.65;41.57;99130.16;1804225;79;21068;-63
2021/10/22 10:19:24;;;;;;;3.37;2.50;;;;;;;22.74;41.50;99122.63;1810460;79;21111;-62
2021/10/22 10:21:58;;;;;;;2.62;2.30;;;;;;;22.83;41.31;99121.60;1787602;79;21107;-63
2021/10/22 10:24:44;;;;;;;4.08;2.22;;;;;;;22.92;41.02;99117.83;1788960;79;21055;-64
2021/10/22 10:27:14;;;;;;;2.33;1.98;;;;;;;22.97;40.86;99128.15;1808065;79;21581;-63
2021/10/22 10:29:48;;;;;;;3.50;2.20;;;;;;;22.94;40.59;99116.48;1777922;80;20990;-61
2021/10/22 10:32:19;;;;;;;3.95;2.20;;;;;;;23.09;40.57;99130.66;1739757;81;21137;-63
2021/10/22 10:34:54;;;;;;;2.90;2.05;;;;;;;23.15;40.66;99128.78;1762597;81;21033;-64
2021/10/22 10:37:43;;;;;;;3.35;2.02;;;;;;;23.21;40.46;99126.36;1750969;81;21026;-63
2021/10/22 10:40:23;;;;;;;3.22;2.42;;;;;;;23.26;40.36;99130.45;1787606;79;21017;-73
2021/10/22 10:43:03;;;;;;;2.00;1.90;;;;;;;23.33;40.34;99132.90;1789597;79;20996;-74
2021/10/22 10:45:36;;;;;;;2.22;2.02;;;;;;;23.40;40.24;99134.02;1771169;79;21114;-71
2021/10/22 10:48:17;;;;;;;2.45;1.80;;;;;;;23.47;40.24;99138.09;1798038;79;21012;-71
2021/10/22 10:51:04;;;;;;;2.67;2.30;;;;;;;23.56;40.14;99138.38;1786736;79;21041;-72
2021/10/22 10:53:39;;;;;;;2.02;1.82;;;;;;;23.63;40.10;99126.73;1800181;78;21041;-72
2021/10/22 10:56:07;;;;;;;1.80;1.70;;;;;;;23.72;39.94;99121.06;1800146;79;20993;-73
2021/10/22 10:58:44;;;;;;;1.87;1.77;;;;;;;23.81;39.92;99121.91;1798763;79;21118;-71
2021/10/22 11:01:36;;;;;;;2.50;2.10;;;;;;;23.89;39.83;99129.49;1800935;79;21020;-72
2021/10/22 11:04:03;;;;;;;2.15;1.95;;;;;;;23.98;39.76;99127.88;1802268;79;21015;-71
2021/10/22 11:06:52;;;;;;;1.77;1.67;;;;;;;24.07;39.66;99126.25;1799356;79;20997;-75
2021/10/22 11:09:15;;;;;;;2.37;1.82;;;;;;;24.16;39.62;99125.14;1800787;78;20993;-62
2021/10/22 11:11:42;;;;;;;2.35;2.00;;;;;;;24.25;39.56;99122.16;1812861;79;21098;-61
2021/10/22 11:14:11;;;;;;;2.25;2.08;;;;;;;24.34;39.51;99131.93;1816139;79;21021;-61
2021/10/22 11:16:47;;;;;;;3.70;2.00;;;;;;;24.43;39.36;99123.48;1796504;79;21039;-62
2021/10/22 11:19:35;;;;;;;2.30;2.10;;;;;;;24.50;39.29;99132.16;1809769;79;20967;-62
2021/10/22 11:22:18;;;;;;;2.40;2.20;;;;;;;24.57;39.22;99125.66;1759362;78;21506;-63
2021/10/22 11:24:42;;;;;;;1.92;1.70;;;;;;;24.62;39.17;99125.66;1813166;78;21162;-62
2021/10/22 11:27:15;;;;;;;1.70;1.60;;;;;;;24.68;39.13;99136.77;1816964;78;21029;-62
2021/10/22 11:29:44;;;;;;;1.80;1.70;;;;;;;24.73;39.07;99134.84;1803742;78;22065;-62
2021/10/22 11:32:14;;;;;;;1.92;1.80;;;;;;;24.81;39.07;99142.17;1800245;78;21007;-61
2021/10/22 11:37:33;;;;;;;2.08;1.87;;;;;;;25.01;38.95;99127.13;1854843;75;22481;-61
2021/10/22 11:40:03;;;;;;;3.00;2.27;;;;;;;25.05;38.90;99135.55;1824077;77;21723;-62
2021/10/22 11:42:32;;;;;;;1.70;1.60;;;;;;;25.15;38.80;99145.55;1833994;77;21104;-63
2021/10/22 11:45:14;;;;;;;1.90;1.52;;;;;;;25.23;38.76;99145.83;1823730;77;21221;-61
2021/10/22 11:47:46;;;;;;;1.85;1.75;;;;;;;25.29;38.68;99147.98;1822326;77;26178;-61
2021/10/22 11:50:23;;;;;;;1.70;1.60;;;;;;;25.34;38.67;99160.72;1808145;77;21508;-61
2021/10/22 11:53:09;;;;;;;2.55;1.80;;;;;;;25.37;38.66;99150.11;1822671;77;21277;-64
2021/10/22 11:55:33;;;;;;;;;;;;;;;25.38;38.66;99153.11;1781395;77;22661;-65
2021/10/22 11:58:10;;;;;;;2.17;1.90;;;;;;;25.41;38.63;99154.44;1835132;77;20170;-65